Shawnee Mission, KS (66212)

3:11 PM CDT on May 05, 2015 (GMT -0500)
MorningView | | Change Station
CLOSE
Current Station
Personal Weather Station
Location: Overland Park, KS
Elevation: 965 ft
Nearby Weather Stations

Elev 965 ft 38.95 °N, 94.69 °W | Updated 46 seconds ago

Clear
Clear
82.1 °F
Feels Like 82 °F
N
1.0
Wind Variable Wind from NNE
Gusts 2.0 mph

Today
High -- | Low -- °F
--% Chance of Precip.
Yesterday
High -- | Low -- °F
Precip. -- in
6:16 AM 8:15 PM
Full, 97% visible
Pressure 30.02 in
Visibility 10.0 miles
Clouds Few 6000 ft
Heat Index 82 °F
Dew Point 58 °F
Humidity 44%
Rainfall 0.00 in
Snow Depth Not available.
UV 9 out of 12
Pollen 6.10 out of 12
Air Quality Not available.
Flu Activity Sporadic
METAR KOJC 051953Z 20011KT 10SM FEW060 27/14 A3005 RMK AO2 SLP165 T02670139

More Conditions Fewer Conditions

Pressure 30.02 in
Visibility 10.0 miles
Clouds Few 6000 ft
Heat Index 82 °F
Dew Point 58 °F
Humidity 44%
Rainfall 0.00 in
Snow Depth Not available.
UV 9 out of 12
Pollen 6.10 out of 12
Air Quality Not available.
Flu Activity Sporadic
METAR KOJC 051953Z 20011KT 10SM FEW060 27/14 A3005 RMK AO2 SLP165 T02670139

More Conditions Fewer Conditions

10-Day Weather Forecast

Almanac

Astronomy

May. 05, 2015 Rise Set
Actual Time
Civil Twilight
Nautical Twilight
Astronomical Twilight
Moon
Length of Visible Light
Length of Day
Tomorrow will be .
, % of the Moon is Illuminated

Today's Extremes

State Highs State Lows

Community

WunderPhotos

Upload Photos

1,818,965 photos uploaded!

WunderBlogs® & News

Nearby

Air Quality

  Air Quality AQ Index Pollutant
Not available.

Snow Depth

Station Depth Elevation

Earthquake Activity

City Distance Mag. Time & Date
Minimum magnitude displayed is 2.5.

Coastal Water Temperatures

Place Temperature

Stations

Nearby Weather Stations

Station Location Temp. Windchill Dew Point Humidity Wind Precip. Elev Updated Type